TAF SKLT
SKLT 280430Z 2806/2906 00000KT 9999 SCT015 BKN080 FM281400 30005KT 9999 BKN015 TEMPO 2817/2819 RA BKN010TCU FM282300 VRB02KT 9999 SCT017 TX33/2818Z TN23/2810Z=
METAR SKLT
SKLT 280300Z 00000KT 9999 BKN009 BKN080 24/24 Q1009 RMK A2982=
SKLT 252300Z 00000KT 9999 TS SCT013CB BKN080 27/25 Q1007 RMK CB/E A2974=
WC SKLT
WS SKLT
WV SKLT